AddedLatest Added eBooks:

  1. by Lysa TerKeurst / 2021-12-27I'll Start Again Monday: Break the Cycle of Unhealthy Eating Habits with Lasting Spiritual Satisfaction
  2. by Lysa TerKeurst / 2021-12-27I'll Start Again Monday: Break the Cycle of Unhealthy Eating Habits with Lasting Spiritual Satisfaction -
  3. by Louise Spear-Swerling / 2021-12-27Structured Literacy Interventions: Teaching Students with Reading Difficulties, Grades K-6 (The Guilford Series on Intensive Instruction)
  4. 2021-12-27The Gardener 2021 1080p WEBRip x264-RARBG
  5. 2021-12-27Standard Written English: A Guide
  6. 2021-12-2790 Day Fiance Pillow Talk S13E03 Before the 90 Days First Date Second Thoughts 720p HEVC x265-MeG...
  7. 2021-12-27Pressure 2015 1080p BluRay x265-RARBG
  8. 2021-12-27Mothering Sunday 2021 1080p WEBRip x265-RARBG
  9. 2021-12-27A Christmas Star (2021) 1080p WEBRip x264-RARBG
  10. 2021-12-27Code of Silence (2021) WEBRip x264-ION10
  11. 2021-12-27Death To (2021) (2021) 1080p WEBRip x264-RARBG
  12. 2021-12-27The Gardener (2021) 1080p WEBRip x264-RARBG
  13. 2021-12-27Last Looks (2021) 1080p WEBRip x264-RARBG - Removed
  14. 2021-12-27The Gardener 2021 HDRip XviD AC3-EVO
  15. 2021-12-27Holiday in Santa Fe (2021) 1080p WEBRip x264-RARBG
  16. 2021-12-27Jekyll and Hyde (2021) WEBRip x264-ION10
  17. 2021-12-27The Great and Terrible Day of the Lord 2021 HDRip XviD AC3-EVO
  18. 2021-12-27The Great and Terrible Day of the Lord (2021) WEBRip XviD MP3-XVID
  19. 2021-12-27The Gardener 2021 1080p WEBRip DD5 1 X 264-EVO
  20. 2021-12-27The Gardener 2021 720p WEBRip AAC2 0 X 264-EVO
  21. 2021-12-27Jekyll and Hyde (2021) 1080p WEBRip x264-RARBG
  22. 2021-12-27Death To (2021) (2021) WEBRip x264-ION10
  23. 2021-12-27The Great and Terrible Day of the Lord (2021) 1080p WEBRip x264-RARBG
  24. 2021-12-27Code of Silence (2021) WEBRip XviD MP3-XVID
  25. 2021-12-27Mothering Sunday (2021) 1080p WEBRip x265-RARBG
  26. 2021-12-27Last Looks (2021) WEBRip XviD MP3-XVID
  27. 2021-12-27Writing Around The Christmas Tree (2021) WEBRip x264-ION10
  28. 2021-12-27Mothering Sunday (2021) WEBRip x264-ION10
  29. 2021-12-27The Great and Terrible Day of the Lord 2021 720p WEBRip AAC2 0 X 264-EVO
  30. 2021-12-27Death To (2021) (2021) WEBRip XviD MP3-XVID
  31. 2021-12-27The Great and Terrible Day of the Lord 2021 1080p WEBRip DD2 0 X 264-EVO
  32. 2021-12-27The Kindred (2021) 1080p WEBRip x264-RARBG
  33. 2021-12-27The Kindred (2021) WEBRip x264-ION10
  34. 2021-12-27Hot Chocolate Holiday (2021) 720p WEB h264-BAE
  35. 2021-12-27Candy Cane Candidate (2021) 720p WEB h264-BAE
  36. 2021-12-27Code of Silence (2021) 1080p WEBRip x264-RARBG
  37. 2021-12-27Last Looks (2021) 1080p WEBRip x265-RARBG
  38. 2021-12-27Writing Around The Christmas Tree (2021) 1080p WEBRip x264-RARBG
  39. 2021-12-27Jekyll and Hyde (2021) WEBRip XviD MP3-XVID
  40. 2021-12-27It Takes a Christmas Village (2021) 720p WEB h264-BAE
  41. 2021-12-27The Gardener (2021) WEBRip x264-ION10
  42. 2021-12-27The Kindred (2021) WEBRip XviD MP3-XVID
  43. 2021-12-27The Great and Terrible Day of the Lord 2021 1080p WEBRip x264-RARBG
  44. 2021-12-27The Gardener (2021) WEBRip XviD MP3-XVID
  45. 2021-12-27Death To (2021) (2021) 720p WEB H264-PECULATE
  46. 2021-12-27The Great and Terrible Day of the Lord (2021) WEBRip x264-ION10
  47. 2021-12-27Mothering Sunday (2021) 1080p WEBRip x264-RARBG
  48. 2021-12-27Mothering Sunday (2021) WEBRip XviD MP3-XVID
  49. 2021-12-27Writing Around The Christmas Tree (2021) 1080p WEBRip x265-RARBG
  50. 2021-12-27Economics in 10 Principles
  51. 2021-12-27Last Looks (2021) WEBRip x264-ION10 - Removed
  52. 2021-12-27My Favorite Christmas Melody (2021) PROPER 1080p WEBRip x264-RARBG
  53. 2021-12-27Easy, Healthy, Crockpot Cooking! Cooking Lessons for Dad!
  54. 2021-12-27CI/CD Pipelines using Azure DevOps
  55. 2021-12-27Build Lean Muscle 4 Weeks | 20 Min Body weight Workouts
  56. 2021-12-27Death To 2021 2021 1080p WEBRip x265-RARBG
  57. 2021-12-27Nativity 3 Dude Wheres My Donkey 2014 1080p BluRay x265-RARBG
  58. 2021-12-27Cicada 2020 1080p WEBRip x265-RARBG
  59. 2021-12-27SuperHi - Instagram Filters Spark AR
  60. 2021-12-27Next.js Dev to Deployment [2021-04]
  61. 2021-12-27Christmas Land 2015 1080p WEBRip x265-RARBG
  62. 2021-12-27Various Artists - The Best Of The One Hit Wonders (2021) MP3
  63. 2021-12-27Building Microservices with Node, React and Mongo
  64. 2021-12-27Data Analytics with R from Scratch
  65. 2021-12-27Formation Git et GitHub: de Débutant à Confirmé
  66. 2021-12-27Resume Writing: Building Cv That Gets Shortlisted
  67. 2021-12-27Blender 3D: Easy Robot Character
  68. 2021-12-27Agile IT Business Analysis Made Comprehensible
  69. 2021-12-27General Networking - wireless, routers, firewalls, Cisco NAS
  70. 2021-12-27Masterclass Wholefood Cooking Simple Easy and Fun
  71. 2021-12-27Red Rocket 2021 1080p WEB-DL x264 AC3-EVO
  72. 2021-12-27PlumperPass.21.12.17.Alexxxis.Allure.Breakfast.With.Alexxxis.XXX.720p
  73. 2021-12-27The Arduino Leonardo Book 8 of the Arduino Short Reads Series
  74. 2021-12-27The Arts of Indigenous Health and Well-Being
  75. 2021-12-27A Christmas Number One 2021 720p WEBRip 800MB x264-GalaxyRG
  76. 2021-12-27Travel Man 48 Hours In S11E00 96 Hours in Iceland 1080p HEVC x265-MeGusta
  77. 2021-12-27A Christmas Number One 2021 HDRip XviD AC3-EVO
  78. 2021-12-27A Christmas Number One 2021 1080p WEBRip DD5 1 X 264-EVO
  79. 2021-12-27Red Rocket 2021 1080p WEBRip 1400MB DD2 0 x264-GalaxyRG
  80. 2021-12-27Red Rocket 2021 720p WEBRip 800MB x264-GalaxyRG
  81. 2021-12-28Reason RE BASSGRID Terminal Master Effect v1.0.1
  82. 2021-12-28DTFSluts - Abbie Maley aka Wednesday Parker - Watch Me Fuck You
  83. 2021-12-28[NSFWFilms] Keely Rose, Lacy Lennon - Red Hot and Ruthless (2021)
  84. 2021-12-28Class Of 92 Full Time S04E01 1080p HEVC x265-MeGusta
  85. 2021-12-28Reason RE Alien Seed Tech PSDN v1.0.3
  86. 2021-12-28Reason RE Audio Damage RoughRider v1.0.1
  87. 2021-12-28Anthemion Jutoh 3.13.5 Multilingual Portable
  88. 2021-12-28Blackmagic Design DaVinci Resolve Studio 17.4.3.0010 WiN MAC
  89. 2021-12-28SQL DXP for Oracle and MySQL 6.6.0.170
  90. 2021-12-28SQL DXP for SQL Server and MySQL 6.6.0.180
  91. 2021-12-28Windows 11 21H2 Build 22000.376 AIO 36in1 x64 December 2021
  92. 2021-12-28WonderPen 2.0.4 macOS
  93. 2021-12-28eMail Address Extractor 3.5.8.1 macOS
  94. 2021-12-28[Vixen] Jia Lissa, Sonya Blaze - Jia Episode 3
  95. 2021-12-28Warrior Trading - Warrior PRO (2021) - Removed
  96. 2021-12-28Introductory PYTHON for Data Science with Exercises and Quiz
  97. 2021-12-28Cookie 6.6.3.1 macOS
  98. 2021-12-28Privatus 6.3.5.1 macOS
  99. 2021-12-28TG Pro (Temperature Gauge Pro) v2.64 macOS

More eBooks ...

53729 pages, 5372829 eBooks in total, list all pages->

Search free ebooks in ebookee.com!
Back to Top